Time;durP1;ratioP1;P1;durP2;ratioP2;P2;SDS_P1;SDS_P2;PMS_P1;PMS_P2;Temp;Humidity;BMP_temperature;BMP_pressure;BME280_temperature;BME280_humidity;BME280_pressure;Samples;Min_cycle;Max_cycle;Signal;HPM_P1;HPM_P2
2022/07/25 00:02:16;;;;;;;6.93;6.63;;;;;;;;;;5032201;28;20604;-74
2022/07/25 00:04:42;;;;;;;7.67;7.20;;;;;;;;;;5030814;28;20435;-76
2022/07/25 00:07:08;;;;;;;6.13;5.80;;;;;;;;;;5032451;28;20437;-74
2022/07/25 00:09:34;;;;;;;7.33;6.70;;;;;;;;;;5032047;28;20463;-73
2022/07/25 00:12:00;;;;;;;6.03;5.60;;;;;;;;;;5032187;28;20529;-73
2022/07/25 00:14:26;;;;;;;5.33;5.17;;;;;;;;;;5031088;28;21030;-73
2022/07/25 00:16:52;;;;;;;6.43;6.10;;;;;;;;;;5032242;28;20488;-74
2022/07/25 00:19:18;;;;;;;7.00;5.90;;;;;;;;;;5032524;28;20432;-72
2022/07/25 00:21:44;;;;;;;7.07;6.67;;;;;;;;;;5031025;28;20439;-74
2022/07/25 00:24:10;;;;;;;5.63;5.20;;;;;;;;;;5032089;28;20909;-74
2022/07/25 00:26:35;;;;;;;6.57;6.17;;;;;;;;;;5032240;28;20450;-74
2022/07/25 00:29:01;;;;;;;6.00;5.60;;;;;;;;;;5031853;28;20197;-73
2022/07/25 00:31:27;;;;;;;6.37;6.07;;;;;;;;;;5029567;28;20479;-73
2022/07/25 00:33:53;;;;;;;6.20;5.90;;;;;;;;;;5031803;28;20181;-73
2022/07/25 00:36:19;;;;;;;7.50;6.90;;;;;;;;;;5032204;28;20189;-73
2022/07/25 00:38:45;;;;;;;7.13;6.50;;;;;;;;;;5031585;28;20477;-75
2022/07/25 00:41:11;;;;;;;7.97;7.23;;;;;;;;;;5031615;28;20865;-76
2022/07/25 00:43:37;;;;;;;5.60;5.20;;;;;;;;;;5031401;28;21339;-74
2022/07/25 00:46:03;;;;;;;6.70;6.33;;;;;;;;;;5031930;28;20915;-76
2022/07/25 00:48:29;;;;;;;6.40;6.20;;;;;;;;;;5031414;28;20414;-73
2022/07/25 00:50:55;;;;;;;6.73;6.33;;;;;;;;;;5031325;28;20864;-75
2022/07/25 00:53:22;;;;;;;7.00;6.50;;;;;;;;;;5029619;28;20994;-73
2022/07/25 00:55:48;;;;;;;8.80;6.50;;;;;;;;;;5030909;28;20439;-77
2022/07/25 00:58:14;;;;;;;7.37;6.53;;;;;;;;;;5031622;28;20439;-74
2022/07/25 01:00:40;;;;;;;8.23;7.53;;;;;;;;;;5032073;28;20443;-74
2022/07/25 01:03:06;;;;;;;7.80;7.20;;;;;;;;;;5030473;28;20427;-75
2022/07/25 01:05:32;;;;;;;6.80;6.20;;;;;;;;;;5030765;28;21024;-74
2022/07/25 01:07:58;;;;;;;7.40;6.90;;;;;;;;;;5031201;28;20431;-74
2022/07/25 01:10:24;;;;;;;6.90;6.50;;;;;;;;;;5030957;28;21042;-78
2022/07/25 01:12:51;;;;;;;6.73;6.43;;;;;;;;;;5031751;28;20431;-77
2022/07/25 01:15:18;;;;;;;7.67;6.63;;;;;;;;;;5030009;28;20892;-74
2022/07/25 01:17:44;;;;;;;5.97;5.77;;;;;;;;;;5030352;28;20439;-75
2022/07/25 01:20:12;;;;;;;6.60;6.30;;;;;;;;;;5031879;28;20435;-76
2022/07/25 01:22:38;;;;;;;7.73;6.93;;;;;;;;;;5029445;28;20431;-74
2022/07/25 01:25:04;;;;;;;6.93;6.30;;;;;;;;;;5030315;28;20427;-74
2022/07/25 01:27:31;;;;;;;6.60;6.27;;;;;;;;;;5030529;28;20184;-75
2022/07/25 01:29:57;;;;;;;7.90;7.30;;;;;;;;;;5030338;28;21211;-76
2022/07/25 01:32:23;;;;;;;8.03;7.53;;;;;;;;;;5029016;28;20434;-74
2022/07/25 01:34:48;;;;;;;8.70;7.93;;;;;;;;;;5030466;28;20196;-76
2022/07/25 01:37:14;;;;;;;7.90;7.33;;;;;;;;;;5029564;28;20945;-78
2022/07/25 01:39:40;;;;;;;10.40;7.60;;;;;;;;;;5030802;28;20648;-79
2022/07/25 01:42:06;;;;;;;8.13;6.80;;;;;;;;;;5029843;28;20703;-75
2022/07/25 01:44:32;;;;;;;8.17;7.67;;;;;;;;;;5030580;28;20443;-76
2022/07/25 01:46:58;;;;;;;12.17;8.13;;;;;;;;;;5030869;28;20447;-74
2022/07/25 01:49:25;;;;;;;25.07;7.20;;;;;;;;;;5030147;28;20208;-75
2022/07/25 01:51:51;;;;;;;7.27;6.80;;;;;;;;;;5030217;28;20188;-77
2022/07/25 01:54:17;;;;;;;6.60;6.20;;;;;;;;;;5029525;28;20491;-74
2022/07/25 01:56:44;;;;;;;6.73;6.20;;;;;;;;;;5030426;28;20490;-73
2022/07/25 01:59:10;;;;;;;6.70;6.30;;;;;;;;;;5029743;28;20444;-76
2022/07/25 02:01:36;;;;;;;6.97;6.53;;;;;;;;;;5030400;28;20931;-75
2022/07/25 02:04:03;;;;;;;6.97;6.57;;;;;;;;;;5028321;28;20912;-77
2022/07/25 02:06:29;;;;;;;6.00;5.80;;;;;;;;;;5030763;28;20435;-73
2022/07/25 02:08:55;;;;;;;8.13;7.07;;;;;;;;;;5029397;28;20437;-72
2022/07/25 02:11:21;;;;;;;7.10;6.70;;;;;;;;;;5029060;28;20490;-73
2022/07/25 02:13:47;;;;;;;7.17;6.80;;;;;;;;;;5029153;28;20212;-73
2022/07/25 02:16:13;;;;;;;7.63;6.47;;;;;;;;;;5030066;28;20463;-73
2022/07/25 02:18:39;;;;;;;6.83;6.43;;;;;;;;;;5029555;28;20550;-72
2022/07/25 02:21:07;;;;;;;6.70;6.30;;;;;;;;;;5029303;28;20814;-73
2022/07/25 02:23:33;;;;;;;6.73;6.10;;;;;;;;;;5028883;28;20469;-73
2022/07/25 02:25:59;;;;;;;6.87;6.27;;;;;;;;;;5028410;28;20439;-73
2022/07/25 02:28:25;;;;;;;7.47;6.97;;;;;;;;;;5029648;28;20481;-73
2022/07/25 02:30:51;;;;;;;7.10;6.30;;;;;;;;;;5029523;28;20481;-75
2022/07/25 02:33:17;;;;;;;6.80;6.50;;;;;;;;;;5028046;28;20501;-73
2022/07/25 02:35:43;;;;;;;6.00;5.73;;;;;;;;;;5029751;28;20475;-76
2022/07/25 02:38:09;;;;;;;6.60;6.20;;;;;;;;;;5029682;28;20435;-73
2022/07/25 02:40:35;;;;;;;6.13;5.93;;;;;;;;;;5029503;28;20435;-74
2022/07/25 02:43:01;;;;;;;6.73;6.10;;;;;;;;;;5028198;28;20427;-73
2022/07/25 02:45:27;;;;;;;7.27;6.73;;;;;;;;;;5029100;28;20435;-74
2022/07/25 02:47:53;;;;;;;6.13;5.83;;;;;;;;;;5029562;28;20195;-75
2022/07/25 02:50:19;;;;;;;6.83;6.53;;;;;;;;;;5029320;28;20307;-75
2022/07/25 02:52:45;;;;;;;7.03;6.53;;;;;;;;;;5028347;28;20518;-77
2022/07/25 02:55:11;;;;;;;7.20;6.67;;;;;;;;;;5041125;28;20228;-73
2022/07/25 02:57:37;;;;;;;7.93;6.80;;;;;;;;;;5029491;28;20430;-79
2022/07/25 03:00:04;;;;;;;6.20;5.83;;;;;;;;;;5028807;28;20439;-78
2022/07/25 03:02:30;;;;;;;7.10;6.57;;;;;;;;;;5028388;28;20184;-77
2022/07/25 03:04:56;;;;;;;7.10;6.57;;;;;;;;;;5027566;28;20447;-76
2022/07/25 03:07:22;;;;;;;6.00;5.70;;;;;;;;;;5028184;28;20195;-78
2022/07/25 03:09:48;;;;;;;7.10;6.67;;;;;;;;;;5029244;28;20970;-75
2022/07/25 03:12:14;;;;;;;7.83;6.27;;;;;;;;;;5027630;28;20656;-73
2022/07/25 03:14:40;;;;;;;6.83;6.43;;;;;;;;;;5027674;28;20438;-77
2022/07/25 03:17:06;;;;;;;6.30;5.90;;;;;;;;;;5034946;28;20242;-77
2022/07/25 03:19:31;;;;;;;10.40;7.40;;;;;;;;;;5034339;28;20427;-75
2022/07/25 03:21:57;;;;;;;7.00;6.57;;;;;;;;;;5035217;28;20188;-77
2022/07/25 03:24:23;;;;;;;6.97;6.57;;;;;;;;;;5035463;28;20180;-79
2022/07/25 03:26:49;;;;;;;7.13;6.73;;;;;;;;;;5035811;28;20184;-79
2022/07/25 03:29:15;;;;;;;7.43;6.70;;;;;;;;;;5036129;28;20443;-79
2022/07/25 03:31:41;;;;;;;6.83;6.43;;;;;;;;;;5035049;28;20177;-78
2022/07/25 03:34:07;;;;;;;7.60;7.10;;;;;;;;;;5035436;28;20204;-77
2022/07/25 03:36:33;;;;;;;6.93;6.43;;;;;;;;;;5034357;28;20994;-78
2022/07/25 03:38:59;;;;;;;7.67;6.00;;;;;;;;;;5033660;28;20786;-78
2022/07/25 03:41:26;;;;;;;7.30;6.77;;;;;;;;;;5035221;28;20419;-79
2022/07/25 03:43:52;;;;;;;6.90;6.50;;;;;;;;;;5035036;28;20427;-78
2022/07/25 03:46:17;;;;;;;7.00;6.40;;;;;;;;;;5034566;28;20442;-78
2022/07/25 03:48:43;;;;;;;8.13;7.30;;;;;;;;;;5034748;28;20927;-74
2022/07/25 03:51:09;;;;;;;6.80;6.50;;;;;;;;;;5035268;28;20844;-79
2022/07/25 03:54:00;;;;;;;7.30;6.60;;;;;;;;;;5033927;28;20471;-78
2022/07/25 03:56:21;;;;;;;6.77;6.17;;;;;;;;;;5034715;28;20261;-78
2022/07/25 03:58:47;;;;;;;8.23;7.73;;;;;;;;;;5035249;28;20431;-78
2022/07/25 04:01:13;;;;;;;6.83;6.13;;;;;;;;;;5034572;28;20799;-74
2022/07/25 04:03:40;;;;;;;6.97;6.63;;;;;;;;;;5034922;28;20647;-73
2022/07/25 04:06:06;;;;;;;13.90;8.03;;;;;;;;;;5033941;28;20506;-77
2022/07/25 04:08:32;;;;;;;10.10;9.03;;;;;;;;;;5030201;28;20443;-76
2022/07/25 04:10:58;;;;;;;7.13;6.80;;;;;;;;;;5034306;28;20490;-76
2022/07/25 04:13:24;;;;;;;7.30;6.90;;;;;;;;;;5035236;28;20445;-76
2022/07/25 04:15:50;;;;;;;7.10;6.70;;;;;;;;;;5032760;28;20522;-76
2022/07/25 04:18:16;;;;;;;8.07;7.23;;;;;;;;;;5034822;28;20984;-76
2022/07/25 04:20:42;;;;;;;7.73;6.43;;;;;;;;;;5035197;28;20422;-76
2022/07/25 04:23:09;;;;;;;7.80;7.27;;;;;;;;;;5034643;28;20645;-76
2022/07/25 04:25:35;;;;;;;9.93;7.27;;;;;;;;;;5033597;28;21030;-76
2022/07/25 04:28:01;;;;;;;9.10;8.00;;;;;;;;;;5028936;28;20448;-76
2022/07/25 04:30:26;;;;;;;7.57;7.10;;;;;;;;;;5031880;28;20220;-76
2022/07/25 04:32:52;;;;;;;11.63;8.17;;;;;;;;;;5030993;28;20252;-76
2022/07/25 04:35:19;;;;;;;7.70;7.10;;;;;;;;;;5030541;28;20951;-76
2022/07/25 04:37:44;;;;;;;7.83;7.20;;;;;;;;;;5032499;28;20423;-76
2022/07/25 04:40:11;;;;;;;9.43;8.67;;;;;;;;;;5031442;28;20943;-76
2022/07/25 04:42:37;;;;;;;16.07;6.83;;;;;;;;;;5031200;28;20496;-76
2022/07/25 04:45:03;;;;;;;9.43;8.43;;;;;;;;;;5030297;28;20851;-76
2022/07/25 04:47:29;;;;;;;9.03;7.93;;;;;;;;;;5030454;28;20471;-76
2022/07/25 04:49:55;;;;;;;8.53;7.93;;;;;;;;;;5031196;28;20486;-76
2022/07/25 04:52:21;;;;;;;12.47;8.67;;;;;;;;;;5030715;28;20504;-77
2022/07/25 04:54:47;;;;;;;8.50;7.67;;;;;;;;;;5030714;28;20238;-77
2022/07/25 04:57:13;;;;;;;8.67;6.83;;;;;;;;;;5030138;28;20427;-77
2022/07/25 04:59:39;;;;;;;8.50;7.90;;;;;;;;;;5029942;28;20195;-77
2022/07/25 05:02:05;;;;;;;8.47;7.97;;;;;;;;;;5030265;28;20919;-76
2022/07/25 05:04:31;;;;;;;8.87;7.97;;;;;;;;;;5028418;28;20675;-76
2022/07/25 05:06:58;;;;;;;10.67;9.57;;;;;;;;;;5030261;28;20489;-76
2022/07/25 05:09:24;;;;;;;9.20;8.37;;;;;;;;;;5030440;28;20723;-76
2022/07/25 05:11:49;;;;;;;8.60;7.67;;;;;;;;;;5029973;28;20833;-76
2022/07/25 05:14:16;;;;;;;8.40;7.90;;;;;;;;;;5030805;28;20618;-76
2022/07/25 05:16:41;;;;;;;8.70;8.00;;;;;;;;;;5030626;28;20192;-76
2022/07/25 05:19:08;;;;;;;8.53;7.73;;;;;;;;;;5029074;28;20458;-75
2022/07/25 05:21:34;;;;;;;11.07;8.37;;;;;;;;;;5030881;28;20561;-76
2022/07/25 05:24:00;;;;;;;13.80;9.77;;;;;;;;;;5030246;28;20431;-76
2022/07/25 05:26:26;;;;;;;8.77;8.07;;;;;;;;;;5029032;28;20521;-76
2022/07/25 05:28:52;;;;;;;16.10;8.00;;;;;;;;;;5029447;28;20443;-75
2022/07/25 05:31:18;;;;;;;10.27;7.57;;;;;;;;;;5028277;28;20526;-76
2022/07/25 05:33:44;;;;;;;9.20;8.40;;;;;;;;;;5031406;28;20438;-76
2022/07/25 05:36:10;;;;;;;10.17;9.20;;;;;;;;;;5027925;28;20573;-77
2022/07/25 05:38:36;;;;;;;9.33;8.43;;;;;;;;;;5028695;28;20427;-77
2022/07/25 05:41:02;;;;;;;8.23;7.70;;;;;;;;;;5028441;28;20443;-77
2022/07/25 05:43:28;;;;;;;9.47;8.77;;;;;;;;;;5031802;28;20435;-77
2022/07/25 05:45:59;;;;;;;9.40;8.40;;;;;;;;;;5028541;28;20566;-77
2022/07/25 05:48:25;;;;;;;12.87;8.93;;;;;;;;;;5029086;28;20493;-77
2022/07/25 05:50:51;;;;;;;8.30;7.63;;;;;;;;;;5030172;28;20498;-77
2022/07/25 05:53:17;;;;;;;12.97;8.80;;;;;;;;;;5029621;28;20494;-78
2022/07/25 05:55:43;;;;;;;9.63;8.80;;;;;;;;;;5030085;28;20440;-76
2022/07/25 05:58:09;;;;;;;10.03;9.23;;;;;;;;;;5030014;28;20188;-77
2022/07/25 06:00:35;;;;;;;11.10;8.17;;;;;;;;;;5029780;28;20206;-76
2022/07/25 06:03:01;;;;;;;9.87;9.03;;;;;;;;;;5030013;28;20510;-77
2022/07/25 06:05:27;;;;;;;9.17;8.23;;;;;;;;;;5030247;28;20415;-77
2022/07/25 06:07:53;;;;;;;10.27;8.20;;;;;;;;;;5029709;28;20196;-77
2022/07/25 06:10:19;;;;;;;10.43;9.73;;;;;;;;;;5030118;28;20847;-77
2022/07/25 06:12:45;;;;;;;13.57;9.40;;;;;;;;;;5028707;28;20470;-78
2022/07/25 06:15:11;;;;;;;9.57;8.80;;;;;;;;;;5029849;28;20439;-78
2022/07/25 06:17:37;;;;;;;10.10;9.07;;;;;;;;;;5030205;28;20458;-78
2022/07/25 06:20:03;;;;;;;13.67;8.57;;;;;;;;;;5029967;28;20500;-76
2022/07/25 06:22:29;;;;;;;10.47;9.33;;;;;;;;;;5027210;28;20315;-76
2022/07/25 06:24:56;;;;;;;10.40;9.47;;;;;;;;;;5030167;28;20435;-76
2022/07/25 06:27:22;;;;;;;19.80;9.67;;;;;;;;;;5026654;28;20435;-76
2022/07/25 06:29:48;;;;;;;9.43;8.73;;;;;;;;;;5032881;28;20481;-77
2022/07/25 06:32:14;;;;;;;11.80;9.63;;;;;;;;;;5033034;28;20443;-76
2022/07/25 06:34:40;;;;;;;10.10;9.07;;;;;;;;;;5045509;28;20490;-76
2022/07/25 06:37:06;;;;;;;10.37;9.40;;;;;;;;;;5038036;28;20192;-77
2022/07/25 06:39:32;;;;;;;11.27;9.30;;;;;;;;;;5031450;28;20505;-77
2022/07/25 06:41:58;;;;;;;10.83;9.43;;;;;;;;;;5031647;28;20415;-76
2022/07/25 06:44:24;;;;;;;10.33;9.47;;;;;;;;;;5033093;28;20419;-76
2022/07/25 06:46:51;;;;;;;9.10;8.37;;;;;;;;;;5032665;28;20470;-76
2022/07/25 06:49:17;;;;;;;13.50;8.70;;;;;;;;;;5039721;28;20434;-76
2022/07/25 06:51:43;;;;;;;9.63;9.03;;;;;;;;;;5051864;28;20844;-77
2022/07/25 06:54:09;;;;;;;10.00;9.07;;;;;;;;;;5043045;28;20467;-76
2022/07/25 06:56:35;;;;;;;9.87;8.87;;;;;;;;;;5032239;28;20534;-76
2022/07/25 06:59:01;;;;;;;10.30;9.17;;;;;;;;;;5031617;28;20431;-76
2022/07/25 07:01:27;;;;;;;9.17;8.33;;;;;;;;;;5031753;28;20267;-76
2022/07/25 07:03:53;;;;;;;9.47;8.53;;;;;;;;;;5032005;28;20438;-76
2022/07/25 07:06:19;;;;;;;8.60;8.00;;;;;;;;;;5032925;28;20783;-76
2022/07/25 07:08:45;;;;;;;8.83;8.07;;;;;;;;;;5031180;28;20557;-77
2022/07/25 07:11:14;;;;;;;8.37;7.77;;;;;;;;;;5032422;28;20745;-77
2022/07/25 07:13:39;;;;;;;9.27;8.50;;;;;;;;;;5032603;28;20437;-77
2022/07/25 07:16:06;;;;;;;9.37;8.57;;;;;;;;;;5032678;28;20969;-77
2022/07/25 07:18:32;;;;;;;8.60;7.90;;;;;;;;;;5036241;28;20191;-76
2022/07/25 07:20:57;;;;;;;8.10;7.60;;;;;;;;;;5041649;28;20435;-77
2022/07/25 07:23:24;;;;;;;9.03;8.33;;;;;;;;;;5048958;28;20422;-77
2022/07/25 07:25:50;;;;;;;15.33;8.50;;;;;;;;;;5042066;28;20196;-77
2022/07/25 07:28:16;;;;;;;8.80;8.10;;;;;;;;;;5034312;28;20437;-77
2022/07/25 07:30:42;;;;;;;12.73;11.53;;;;;;;;;;5031774;28;20474;-77
2022/07/25 07:33:08;;;;;;;10.17;8.77;;;;;;;;;;5029933;28;20914;-77
2022/07/25 07:35:34;;;;;;;8.27;7.53;;;;;;;;;;5031467;28;20526;-77
2022/07/25 07:38:00;;;;;;;10.03;8.13;;;;;;;;;;5032493;28;20510;-77
2022/07/25 07:40:26;;;;;;;9.23;7.97;;;;;;;;;;5032513;28;20419;-78
2022/07/25 07:42:52;;;;;;;7.47;6.87;;;;;;;;;;5032012;28;20192;-77
2022/07/25 07:45:20;;;;;;;8.50;7.80;;;;;;;;;;5032448;28;20423;-77
2022/07/25 07:47:47;;;;;;;16.83;8.83;;;;;;;;;;5030927;28;20427;-78
2022/07/25 07:50:13;;;;;;;8.67;7.97;;;;;;;;;;5031864;28;20582;-77
2022/07/25 07:52:39;;;;;;;8.33;7.63;;;;;;;;;;5033957;28;20568;-77
2022/07/25 07:57:51;;;;;;;8.60;7.97;;;;;;;;;;5031036;28;20472;-79
2022/07/25 08:00:17;;;;;;;7.67;7.17;;;;;;;;;;5030445;28;20506;-79
2022/07/25 08:02:46;;;;;;;8.20;7.40;;;;;;;;;;5032888;28;20427;-79
2022/07/25 08:05:13;;;;;;;6.80;6.40;;;;;;;;;;5036019;28;20418;-80
2022/07/25 08:07:39;;;;;;;8.00;7.30;;;;;;;;;;5035895;28;20407;-78
2022/07/25 08:10:05;;;;;;;7.37;6.63;;;;;;;;;;5035900;28;20773;-79
2022/07/25 08:12:31;;;;;;;7.40;7.00;;;;;;;;;;5029710;28;20451;-78
2022/07/25 08:14:57;;;;;;;7.67;6.80;;;;;;;;;;5034592;28;20442;-77
2022/07/25 08:17:23;;;;;;;7.30;6.80;;;;;;;;;;5035196;28;20517;-77
2022/07/25 08:19:49;;;;;;;6.60;6.30;;;;;;;;;;5035364;28;20419;-78
2022/07/25 08:22:14;;;;;;;7.27;6.77;;;;;;;;;;5035074;28;20192;-78
2022/07/25 08:24:40;;;;;;;8.20;6.20;;;;;;;;;;5035295;28;20181;-78
2022/07/25 08:27:06;;;;;;;8.83;6.93;;;;;;;;;;5035474;28;20427;-77
2022/07/25 08:29:32;;;;;;;7.63;6.70;;;;;;;;;;5035567;28;20517;-77
2022/07/25 08:31:58;;;;;;;6.10;5.77;;;;;;;;;;5034839;28;20184;-77
2022/07/25 08:34:24;;;;;;;5.77;5.37;;;;;;;;;;5035241;28;20411;-77
2022/07/25 08:36:50;;;;;;;6.20;5.70;;;;;;;;;;5035292;28;20271;-78
2022/07/25 08:39:16;;;;;;;5.17;4.87;;;;;;;;;;5035484;28;20188;-78
2022/07/25 08:41:42;;;;;;;6.23;5.73;;;;;;;;;;5035525;28;20275;-77
2022/07/25 08:44:09;;;;;;;5.83;5.40;;;;;;;;;;5034472;28;20685;-76
2022/07/25 08:46:35;;;;;;;6.03;5.23;;;;;;;;;;5034921;28;20514;-77
2022/07/25 08:49:01;;;;;;;5.40;5.00;;;;;;;;;;5034103;28;20454;-76
2022/07/25 08:51:28;;;;;;;6.17;5.77;;;;;;;;;;5035241;28;20474;-77
2022/07/25 08:53:54;;;;;;;5.47;5.27;;;;;;;;;;5031093;28;20463;-76
2022/07/25 08:56:20;;;;;;;12.63;6.23;;;;;;;;;;5033538;28;20431;-78
2022/07/25 08:58:46;;;;;;;8.40;6.20;;;;;;;;;;5033072;28;20414;-78
2022/07/25 09:01:13;;;;;;;13.53;6.10;;;;;;;;;;5031182;28;20790;-79
2022/07/25 09:03:39;;;;;;;5.33;5.03;;;;;;;;;;5033080;28;20435;-77
2022/07/25 09:06:18;;;;;;;5.37;4.97;;;;;;;;;;5034689;28;20431;-73
2022/07/25 09:08:55;;;;;;;5.50;5.30;;;;;;;;;;5034877;28;20415;-72
2022/07/25 09:11:27;;;;;;;5.53;5.30;;;;;;;;;;5034871;28;20828;-72
2022/07/25 09:14:06;;;;;;;5.83;5.23;;;;;;;;;;5033780;28;20411;-73
2022/07/25 09:16:36;;;;;;;5.77;5.37;;;;;;;;;;5034370;28;20407;-72
2022/07/25 09:19:09;;;;;;;9.77;5.30;;;;;;;;;;5034777;28;20971;-73
2022/07/25 09:21:35;;;;;;;5.30;4.90;;;;;;;;;;5034693;28;20462;-73
2022/07/25 09:24:09;;;;;;;16.77;4.73;;;;;;;;;;5034215;28;20506;-73
2022/07/25 09:26:44;;;;;;;5.30;4.60;;;;;;;;;;5034599;28;20422;-73
2022/07/25 09:29:27;;;;;;;4.87;4.77;;;;;;;;;;5034552;28;20427;-72
2022/07/25 09:31:54;;;;;;;5.43;4.93;;;;;;;;;;5034212;28;20527;-72
2022/07/25 09:34:36;;;;;;;5.83;5.30;;;;;;;;;;5034159;28;20412;-73
2022/07/25 09:37:04;;;;;;;7.27;5.63;;;;;;;;;;5033297;28;20443;-72
2022/07/25 09:39:39;;;;;;;6.40;5.87;;;;;;;;;;5034376;28;20407;-73
2022/07/25 09:42:25;;;;;;;5.43;5.13;;;;;;;;;;5033966;28;20431;-73
2022/07/25 09:44:58;;;;;;;5.30;4.87;;;;;;;;;;5033965;28;20415;-72
2022/07/25 09:47:25;;;;;;;7.43;4.67;;;;;;;;;;5033937;28;20423;-72
2022/07/25 09:49:51;;;;;;;4.90;4.70;;;;;;;;;;5034220;28;20454;-73
2022/07/25 09:52:17;;;;;;;5.53;5.23;;;;;;;;;;5033836;28;20426;-72
2022/07/25 09:54:43;;;;;;;5.13;5.00;;;;;;;;;;5033946;28;20462;-73
2022/07/25 09:57:10;;;;;;;5.67;5.27;;;;;;;;;;5033975;28;20419;-73
2022/07/25 09:59:36;;;;;;;6.83;5.83;;;;;;;;;;5033975;28;20477;-73
2022/07/25 10:02:26;;;;;;;7.37;5.57;;;;;;;;;;5032935;28;20427;-73
2022/07/25 10:05:11;;;;;;;5.60;5.30;;;;;;;;;;5033953;28;20410;-73
2022/07/25 10:07:38;;;;;;;5.27;5.17;;;;;;;;;;5032554;28;20450;-73
2022/07/25 10:10:04;;;;;;;5.63;5.33;;;;;;;;;;5033748;28;21009;-72
2022/07/25 10:12:31;;;;;;;5.87;5.50;;;;;;;;;;5033419;28;20446;-72
2022/07/25 10:15:13;;;;;;;7.93;5.33;;;;;;;;;;5033655;28;20459;-72
2022/07/25 10:17:41;;;;;;;5.80;5.40;;;;;;;;;;5033302;28;20407;-74
2022/07/25 10:20:10;;;;;;;5.40;4.90;;;;;;;;;;5033637;28;20755;-72
2022/07/25 10:22:37;;;;;;;5.10;4.80;;;;;;;;;;5033204;28;20410;-72
2022/07/25 10:25:13;;;;;;;5.70;5.33;;;;;;;;;;5032512;28;20420;-72
2022/07/25 10:27:42;;;;;;;13.83;5.90;;;;;;;;;;5032215;28;20822;-72
2022/07/25 10:30:10;;;;;;;7.80;5.93;;;;;;;;;;5033387;28;20551;-73
2022/07/25 10:32:36;;;;;;;6.23;5.73;;;;;;;;;;5032684;28;20427;-73
2022/07/25 10:35:11;;;;;;;5.30;4.97;;;;;;;;;;5033352;28;20415;-74
2022/07/25 10:37:37;;;;;;;5.00;4.70;;;;;;;;;;5033341;28;20395;-72
2022/07/25 10:40:03;;;;;;;5.37;5.00;;;;;;;;;;5033369;28;20547;-74
2022/07/25 10:42:32;;;;;;;5.83;5.33;;;;;;;;;;5032925;28;20415;-73
2022/07/25 10:45:04;;;;;;;5.17;4.97;;;;;;;;;;5033210;28;20426;-73
2022/07/25 10:47:41;;;;;;;5.37;5.10;;;;;;;;;;5032794;28;20835;-73
2022/07/25 10:50:10;;;;;;;5.77;5.57;;;;;;;;;;5033128;28;20470;-73
2022/07/25 10:52:40;;;;;;;5.40;5.10;;;;;;;;;;5032781;28;20427;-73
2022/07/25 10:55:06;;;;;;;5.70;5.37;;;;;;;;;;5033079;28;20415;-73
2022/07/25 10:57:33;;;;;;;5.87;5.43;;;;;;;;;;5032988;28;20412;-72
2022/07/25 11:00:06;;;;;;;6.23;6.00;;;;;;;;;;5033013;28;20411;-72
2022/07/25 11:02:32;;;;;;;7.23;5.20;;;;;;;;;;5032186;28;20415;-73
2022/07/25 11:04:59;;;;;;;7.83;5.80;;;;;;;;;;5032989;28;20923;-73
2022/07/25 11:07:27;;;;;;;5.57;5.07;;;;;;;;;;5031561;28;20419;-73
2022/07/25 11:09:57;;;;;;;5.53;5.00;;;;;;;;;;5032810;28;20532;-73
2022/07/25 11:12:23;;;;;;;6.20;5.83;;;;;;;;;;5032565;28;20431;-72
2022/07/25 11:14:49;;;;;;;5.53;5.13;;;;;;;;;;5032793;28;20419;-72
2022/07/25 11:17:23;;;;;;;4.93;4.77;;;;;;;;;;5032322;28;20458;-72
2022/07/25 11:20:00;;;;;;;4.70;4.40;;;;;;;;;;5032789;28;20411;-73
2022/07/25 11:22:26;;;;;;;4.50;4.30;;;;;;;;;;5031135;28;20423;-72
2022/07/25 11:24:52;;;;;;;5.33;5.00;;;;;;;;;;5032673;28;20410;-73
2022/07/25 11:27:27;;;;;;;8.70;4.77;;;;;;;;;;5032745;28;20916;-72
2022/07/25 11:30:04;;;;;;;12.07;4.90;;;;;;;;;;5032564;28;20982;-72
2022/07/25 11:32:38;;;;;;;4.20;3.93;;;;;;;;;;5031836;28;20418;-73
2022/07/25 11:35:04;;;;;;;4.27;4.07;;;;;;;;;;5032673;28;20409;-73
2022/07/25 11:37:33;;;;;;;4.60;4.17;;;;;;;;;;5034935;28;20485;-73
2022/07/25 11:39:59;;;;;;;4.80;4.40;;;;;;;;;;5036549;28;20419;-72
2022/07/25 11:42:27;;;;;;;5.53;4.07;;;;;;;;;;5036218;28;20415;-73
2022/07/25 11:44:54;;;;;;;5.13;4.73;;;;;;;;;;5036570;28;20411;-72
2022/07/25 11:47:27;;;;;;;5.00;4.70;;;;;;;;;;5036024;28;20459;-73
2022/07/25 11:49:54;;;;;;;4.60;4.30;;;;;;;;;;5036264;28;20474;-73
2022/07/25 11:52:47;;;;;;;10.43;5.10;;;;;;;;;;5036009;28;20920;-73
2022/07/25 11:55:15;;;;;;;4.87;4.70;;;;;;;;;;5036042;28;20500;-73
2022/07/25 11:57:45;;;;;;;4.27;4.00;;;;;;;;;;5033360;28;20934;-72
2022/07/25 12:00:21;;;;;;;5.07;4.80;;;;;;;;;;5035666;28;20438;-72
2022/07/25 12:02:47;;;;;;;5.90;5.60;;;;;;;;;;5032495;28;20477;-73
2022/07/25 12:05:15;;;;;;;8.03;4.40;;;;;;;;;;5036058;28;20514;-73
2022/07/25 12:07:41;;;;;;;5.10;4.80;;;;;;;;;;5034845;28;20605;-72
2022/07/25 12:10:08;;;;;;;4.63;4.33;;;;;;;;;;5035848;28;21034;-73
2022/07/25 12:12:49;;;;;;;4.47;4.37;;;;;;;;;;5035693;28;20473;-73
2022/07/25 12:15:17;;;;;;;5.40;4.20;;;;;;;;;;5035927;28;20509;-73
2022/07/25 12:17:43;;;;;;;5.80;5.20;;;;;;;;;;5035555;28;20414;-73
2022/07/25 12:20:16;;;;;;;4.10;3.90;;;;;;;;;;5035814;28;20506;-73
2022/07/25 12:22:42;;;;;;;4.73;4.00;;;;;;;;;;5035572;28;20415;-75
2022/07/25 12:25:09;;;;;;;4.40;4.13;;;;;;;;;;5035809;28;20415;-72
2022/07/25 12:27:35;;;;;;;8.30;4.43;;;;;;;;;;5035755;28;20422;-72
2022/07/25 12:30:01;;;;;;;4.77;4.57;;;;;;;;;;5035573;28;20458;-73
2022/07/25 12:32:27;;;;;;;3.97;3.87;;;;;;;;;;5033616;28;20447;-72
2022/07/25 12:34:52;;;;;;;4.53;4.33;;;;;;;;;;5035455;28;20453;-72
2022/07/25 12:37:20;;;;;;;4.13;4.03;;;;;;;;;;5035585;28;20195;-73
2022/07/25 12:39:46;;;;;;;4.07;3.97;;;;;;;;;;5034297;28;20184;-73
2022/07/25 12:42:12;;;;;;;8.83;5.00;;;;;;;;;;5035102;28;20416;-73
2022/07/25 12:44:38;;;;;;;5.83;5.30;;;;;;;;;;5035463;28;20517;-73
2022/07/25 12:47:04;;;;;;;7.70;4.70;;;;;;;;;;5034911;28;20419;-72
2022/07/25 12:49:30;;;;;;;4.50;4.40;;;;;;;;;;5034174;28;20462;-73
2022/07/25 12:51:56;;;;;;;4.57;4.20;;;;;;;;;;5035507;28;20443;-73
2022/07/25 12:54:22;;;;;;;5.13;4.70;;;;;;;;;;5034678;28;20482;-72
2022/07/25 12:56:48;;;;;;;4.77;4.57;;;;;;;;;;5035206;28;20187;-73
2022/07/25 12:59:14;;;;;;;5.03;4.73;;;;;;;;;;5035214;28;20510;-72
2022/07/25 13:01:40;;;;;;;4.57;4.27;;;;;;;;;;5034599;28;20501;-73
2022/07/25 13:04:07;;;;;;;5.10;4.73;;;;;;;;;;5034590;28;20183;-73
2022/07/25 13:06:33;;;;;;;5.00;4.70;;;;;;;;;;5034992;28;20180;-72
2022/07/25 13:08:59;;;;;;;4.60;4.50;;;;;;;;;;5034905;28;20461;-73
2022/07/25 13:11:25;;;;;;;8.17;5.10;;;;;;;;;;5034938;28;20212;-73
2022/07/25 13:13:51;;;;;;;4.80;4.40;;;;;;;;;;5033780;28;20422;-73
2022/07/25 13:16:17;;;;;;;5.63;4.60;;;;;;;;;;5033219;28;20280;-72
2022/07/25 13:18:43;;;;;;;4.67;4.47;;;;;;;;;;5034288;28;20517;-73
2022/07/25 13:21:10;;;;;;;5.53;4.80;;;;;;;;;;5034319;28;20962;-72
2022/07/25 13:23:36;;;;;;;5.57;5.07;;;;;;;;;;5030911;28;20461;-73
2022/07/25 13:26:02;;;;;;;4.83;4.53;;;;;;;;;;5033926;28;20427;-74
2022/07/25 13:28:28;;;;;;;4.77;4.50;;;;;;;;;;5034593;28;20462;-73
2022/07/25 13:30:54;;;;;;;5.27;4.87;;;;;;;;;;5033958;28;20990;-73
2022/07/25 13:33:20;;;;;;;4.97;4.60;;;;;;;;;;5033907;28;20514;-72
2022/07/25 13:35:46;;;;;;;5.07;4.60;;;;;;;;;;5034572;28;20459;-74
2022/07/25 13:38:12;;;;;;;4.70;4.50;;;;;;;;;;5034490;28;20715;-73
2022/07/25 13:40:42;;;;;;;5.40;4.90;;;;;;;;;;5033899;28;20435;-73
2022/07/25 13:43:12;;;;;;;7.90;4.20;;;;;;;;;;5033619;28;20242;-74
2022/07/25 13:45:38;;;;;;;5.27;4.40;;;;;;;;;;5033921;28;20469;-73
2022/07/25 13:48:05;;;;;;;5.43;5.00;;;;;;;;;;5034209;28;20403;-73
2022/07/25 13:50:31;;;;;;;4.77;4.53;;;;;;;;;;5034084;28;20474;-73
2022/07/25 13:52:59;;;;;;;6.27;4.40;;;;;;;;;;5033225;28;20439;-73
2022/07/25 13:55:25;;;;;;;5.10;4.67;;;;;;;;;;5033956;28;21049;-72
2022/07/25 13:57:51;;;;;;;4.70;4.50;;;;;;;;;;5034088;28;20543;-76
2022/07/25 14:00:18;;;;;;;5.30;5.00;;;;;;;;;;5033221;28;20637;-72
2022/07/25 14:02:44;;;;;;;6.20;4.93;;;;;;;;;;5032958;28;20799;-73
2022/07/25 14:05:10;;;;;;;6.87;4.80;;;;;;;;;;5033633;28;20513;-73
2022/07/25 14:07:36;;;;;;;4.70;4.50;;;;;;;;;;5033606;28;20431;-74
2022/07/25 14:10:04;;;;;;;5.43;4.20;;;;;;;;;;5033741;28;20482;-74
2022/07/25 14:12:30;;;;;;;5.63;5.10;;;;;;;;;;5033089;28;20446;-73
2022/07/25 14:14:56;;;;;;;5.73;5.43;;;;;;;;;;5033500;28;20431;-73
2022/07/25 14:17:22;;;;;;;4.90;4.70;;;;;;;;;;5033471;28;20416;-72
2022/07/25 14:19:48;;;;;;;8.60;5.03;;;;;;;;;;5033651;28;20435;-72
2022/07/25 14:22:14;;;;;;;5.33;4.93;;;;;;;;;;5033135;28;20908;-73
2022/07/25 14:24:40;;;;;;;4.57;4.30;;;;;;;;;;5033203;28;20445;-72
2022/07/25 14:27:06;;;;;;;4.53;4.43;;;;;;;;;;5033450;28;20187;-74
2022/07/25 14:29:32;;;;;;;5.47;5.10;;;;;;;;;;5033407;28;20423;-72
2022/07/25 14:31:58;;;;;;;5.30;5.00;;;;;;;;;;5033014;28;20480;-72
2022/07/25 14:34:23;;;;;;;4.77;4.33;;;;;;;;;;5032812;28;20439;-74
2022/07/25 14:36:49;;;;;;;4.60;4.40;;;;;;;;;;5033432;28;20185;-73
2022/07/25 14:39:15;;;;;;;6.00;5.67;;;;;;;;;;5032694;28;20185;-74
2022/07/25 14:41:41;;;;;;;5.30;5.10;;;;;;;;;;5031415;28;20436;-73
2022/07/25 14:44:08;;;;;;;5.20;4.87;;;;;;;;;;5032911;28;20419;-77